sensor_id;sensor_type;location;lat;lon;timestamp;temperature;humidity
11454;DHT22;5783;55.174;61.310;2024-03-06T00:00:39;28.20;18.40
11454;DHT22;5783;55.174;61.310;2024-03-06T00:03:07;28.20;18.40
11454;DHT22;5783;55.174;61.310;2024-03-06T00:05:35;28.20;18.40
11454;DHT22;5783;55.174;61.310;2024-03-06T00:08:03;28.20;18.40
11454;DHT22;5783;55.174;61.310;2024-03-06T00:10:32;28.20;18.40
11454;DHT22;5783;55.174;61.310;2024-03-06T00:13:02;28.20;18.40
11454;DHT22;5783;55.174;61.310;2024-03-06T00:15:31;28.20;18.40
11454;DHT22;5783;55.174;61.310;2024-03-06T00:17:59;28.20;18.50
11454;DHT22;5783;55.174;61.310;2024-03-06T00:20:29;28.20;18.50
11454;DHT22;5783;55.174;61.310;2024-03-06T00:22:57;28.20;18.50
11454;DHT22;5783;55.174;61.310;2024-03-06T00:25:25;28.20;18.40
11454;DHT22;5783;55.174;61.310;2024-03-06T00:27:54;28.20;18.40
11454;DHT22;5783;55.174;61.310;2024-03-06T00:30:22;28.20;18.40
11454;DHT22;5783;55.174;61.310;2024-03-06T00:32:50;28.20;18.40
11454;DHT22;5783;55.174;61.310;2024-03-06T00:35:18;28.20;18.40
11454;DHT22;5783;55.174;61.310;2024-03-06T00:37:46;28.20;18.40
11454;DHT22;5783;55.174;61.310;2024-03-06T00:40:15;28.30;18.40
11454;DHT22;5783;55.174;61.310;2024-03-06T00:42:44;28.20;18.40
11454;DHT22;5783;55.174;61.310;2024-03-06T00:45:13;28.20;18.40
11454;DHT22;5783;55.174;61.310;2024-03-06T00:47:41;28.30;18.40
11454;DHT22;5783;55.174;61.310;2024-03-06T00:50:09;28.30;18.40
11454;DHT22;5783;55.174;61.310;2024-03-06T00:52:37;28.30;18.40
11454;DHT22;5783;55.174;61.310;2024-03-06T00:55:05;28.20;18.40
11454;DHT22;5783;55.174;61.310;2024-03-06T00:57:33;28.30;18.80
11454;DHT22;5783;55.174;61.310;2024-03-06T01:00:02;28.30;18.90
11454;DHT22;5783;55.174;61.310;2024-03-06T01:02:50;28.30;19.00
11454;DHT22;5783;55.174;61.310;2024-03-06T01:05:18;28.20;18.90
11454;DHT22;5783;55.174;61.310;2024-03-06T01:07:46;28.20;18.90
11454;DHT22;5783;55.174;61.310;2024-03-06T01:10:15;28.20;18.70
11454;DHT22;5783;55.174;61.310;2024-03-06T01:12:44;28.20;18.90
11454;DHT22;5783;55.174;61.310;2024-03-06T01:15:12;28.20;18.90
11454;DHT22;5783;55.174;61.310;2024-03-06T01:17:40;28.20;18.60
11454;DHT22;5783;55.174;61.310;2024-03-06T01:20:09;28.20;18.90
11454;DHT22;5783;55.174;61.310;2024-03-06T01:22:37;28.20;18.80
11454;DHT22;5783;55.174;61.310;2024-03-06T01:25:05;28.10;18.80
11454;DHT22;5783;55.174;61.310;2024-03-06T01:27:33;28.20;18.80
11454;DHT22;5783;55.174;61.310;2024-03-06T01:30:02;28.20;18.80
11454;DHT22;5783;55.174;61.310;2024-03-06T01:32:30;28.20;18.80
11454;DHT22;5783;55.174;61.310;2024-03-06T01:34:59;28.20;18.40
11454;DHT22;5783;55.174;61.310;2024-03-06T01:37:27;28.20;18.80
11454;DHT22;5783;55.174;61.310;2024-03-06T01:39:56;28.20;18.80
11454;DHT22;5783;55.174;61.310;2024-03-06T01:42:24;28.20;18.70
11454;DHT22;5783;55.174;61.310;2024-03-06T01:44:52;28.20;18.80
11454;DHT22;5783;55.174;61.310;2024-03-06T01:47:20;28.20;18.80
11454;DHT22;5783;55.174;61.310;2024-03-06T01:49:49;28.30;18.80
11454;DHT22;5783;55.174;61.310;2024-03-06T01:52:37;28.20;18.80
11454;DHT22;5783;55.174;61.310;2024-03-06T01:55:07;28.20;18.60
11454;DHT22;5783;55.174;61.310;2024-03-06T01:57:36;28.20;18.90
11454;DHT22;5783;55.174;61.310;2024-03-06T02:00:06;28.20;18.50
11454;DHT22;5783;55.174;61.310;2024-03-06T02:02:37;28.20;18.60
11454;DHT22;5783;55.174;61.310;2024-03-06T02:05:05;28.10;18.40
11454;DHT22;5783;55.174;61.310;2024-03-06T02:07:34;28.10;18.40
11454;DHT22;5783;55.174;61.310;2024-03-06T02:10:05;28.10;18.60
11454;DHT22;5783;55.174;61.310;2024-03-06T02:12:36;28.10;18.50
11454;DHT22;5783;55.174;61.310;2024-03-06T02:15:04;28.10;18.50
11454;DHT22;5783;55.174;61.310;2024-03-06T02:17:32;28.10;18.60
11454;DHT22;5783;55.174;61.310;2024-03-06T02:20:01;28.10;18.60
11454;DHT22;5783;55.174;61.310;2024-03-06T02:22:50;28.20;18.50
11454;DHT22;5783;55.174;61.310;2024-03-06T02:25:18;28.10;19.20
11454;DHT22;5783;55.174;61.310;2024-03-06T02:27:47;28.20;18.50
11454;DHT22;5783;55.174;61.310;2024-03-06T02:30:18;28.20;18.50
11454;DHT22;5783;55.174;61.310;2024-03-06T02:32:44;28.20;18.50
11454;DHT22;5783;55.174;61.310;2024-03-06T02:35:13;28.20;18.40
11454;DHT22;5783;55.174;61.310;2024-03-06T02:37:43;28.20;18.50
11454;DHT22;5783;55.174;61.310;2024-03-06T02:40:10;28.20;18.50
11454;DHT22;5783;55.174;61.310;2024-03-06T02:42:39;28.20;18.40
11454;DHT22;5783;55.174;61.310;2024-03-06T02:45:07;28.20;18.40
11454;DHT22;5783;55.174;61.310;2024-03-06T02:47:35;28.20;18.40
11454;DHT22;5783;55.174;61.310;2024-03-06T02:50:03;28.20;18.40
11454;DHT22;5783;55.174;61.310;2024-03-06T02:52:33;28.20;18.60
11454;DHT22;5783;55.174;61.310;2024-03-06T02:55:01;28.20;18.50
11454;DHT22;5783;55.174;61.310;2024-03-06T02:57:30;28.20;18.40
11454;DHT22;5783;55.174;61.310;2024-03-06T02:59:58;28.20;18.40
11454;DHT22;5783;55.174;61.310;2024-03-06T03:02:27;28.20;18.50
11454;DHT22;5783;55.174;61.310;2024-03-06T03:04:55;28.20;18.50
11454;DHT22;5783;55.174;61.310;2024-03-06T03:07:23;28.20;18.50
11454;DHT22;5783;55.174;61.310;2024-03-06T03:09:52;28.20;18.50
11454;DHT22;5783;55.174;61.310;2024-03-06T03:12:20;28.20;18.40
11454;DHT22;5783;55.174;61.310;2024-03-06T03:14:48;28.20;18.30
11454;DHT22;5783;55.174;61.310;2024-03-06T03:17:17;28.20;18.40
11454;DHT22;5783;55.174;61.310;2024-03-06T03:19:46;28.30;18.30
11454;DHT22;5783;55.174;61.310;2024-03-06T03:22:14;28.20;18.40
11454;DHT22;5783;55.174;61.310;2024-03-06T03:24:42;28.20;18.50
11454;DHT22;5783;55.174;61.310;2024-03-06T03:27:10;28.30;18.50
11454;DHT22;5783;55.174;61.310;2024-03-06T03:29:38;28.20;18.50
11454;DHT22;5783;55.174;61.310;2024-03-06T03:32:07;28.20;18.40
11454;DHT22;5783;55.174;61.310;2024-03-06T03:34:35;28.30;18.50
11454;DHT22;5783;55.174;61.310;2024-03-06T03:37:03;28.20;18.50
11454;DHT22;5783;55.174;61.310;2024-03-06T03:39:31;28.20;18.50
11454;DHT22;5783;55.174;61.310;2024-03-06T03:41:59;28.20;18.50
11454;DHT22;5783;55.174;61.310;2024-03-06T03:44:28;28.20;18.50
11454;DHT22;5783;55.174;61.310;2024-03-06T03:46:56;28.20;18.60
11454;DHT22;5783;55.174;61.310;2024-03-06T03:49:24;28.20;18.50
11454;DHT22;5783;55.174;61.310;2024-03-06T03:51:52;28.20;18.50
11454;DHT22;5783;55.174;61.310;2024-03-06T03:54:20;28.20;18.50
11454;DHT22;5783;55.174;61.310;2024-03-06T03:56:48;28.20;18.50
11454;DHT22;5783;55.174;61.310;2024-03-06T03:59:16;28.10;18.60
11454;DHT22;5783;55.174;61.310;2024-03-06T04:01:45;28.10;18.50
11454;DHT22;5783;55.174;61.310;2024-03-06T04:04:13;28.20;18.50
11454;DHT22;5783;55.174;61.310;2024-03-06T04:06:42;28.20;18.50
11454;DHT22;5783;55.174;61.310;2024-03-06T04:09:11;28.20;18.50
11454;DHT22;5783;55.174;61.310;2024-03-06T04:11:40;28.20;18.50
11454;DHT22;5783;55.174;61.310;2024-03-06T04:14:08;28.30;19.40
11454;DHT22;5783;55.174;61.310;2024-03-06T04:16:37;28.30;19.60
11454;DHT22;5783;55.174;61.310;2024-03-06T04:19:05;28.40;19.60
11454;DHT22;5783;55.174;61.310;2024-03-06T04:21:33;28.50;21.20
11454;DHT22;5783;55.174;61.310;2024-03-06T04:24:01;28.70;23.70
11454;DHT22;5783;55.174;61.310;2024-03-06T04:26:49;28.60;20.80
11454;DHT22;5783;55.174;61.310;2024-03-06T04:29:17;28.60;22.10
11454;DHT22;5783;55.174;61.310;2024-03-06T04:31:45;28.70;20.70
11454;DHT22;5783;55.174;61.310;2024-03-06T04:34:13;28.70;22.60
11454;DHT22;5783;55.174;61.310;2024-03-06T04:36:42;28.70;28.20
11454;DHT22;5783;55.174;61.310;2024-03-06T04:39:10;28.70;29.30
11454;DHT22;5783;55.174;61.310;2024-03-06T04:41:38;28.70;23.80
11454;DHT22;5783;55.174;61.310;2024-03-06T04:44:06;28.80;24.50
11454;DHT22;5783;55.174;61.310;2024-03-06T04:46:34;28.80;28.30
11454;DHT22;5783;55.174;61.310;2024-03-06T04:49:02;31.30;27.00
11454;DHT22;5783;55.174;61.310;2024-03-06T04:51:31;28.80;21.40
11454;DHT22;5783;55.174;61.310;2024-03-06T04:53:59;28.80;20.70
11454;DHT22;5783;55.174;61.310;2024-03-06T04:56:27;28.80;20.10
11454;DHT22;5783;55.174;61.310;2024-03-06T04:58:55;28.80;20.20
11454;DHT22;5783;55.174;61.310;2024-03-06T05:01:25;28.80;20.00
11454;DHT22;5783;55.174;61.310;2024-03-06T05:03:55;28.70;19.00
11454;DHT22;5783;55.174;61.310;2024-03-06T05:06:23;28.70;19.60
11454;DHT22;5783;55.174;61.310;2024-03-06T05:08:51;28.70;19.80
11454;DHT22;5783;55.174;61.310;2024-03-06T05:11:20;28.60;19.60
11454;DHT22;5783;55.174;61.310;2024-03-06T05:13:48;28.60;19.70
11454;DHT22;5783;55.174;61.310;2024-03-06T05:16:16;28.60;19.60
11454;DHT22;5783;55.174;61.310;2024-03-06T05:18:44;28.50;17.70
11454;DHT22;5783;55.174;61.310;2024-03-06T05:21:12;28.60;19.60
11454;DHT22;5783;55.174;61.310;2024-03-06T05:23:41;28.50;19.50
11454;DHT22;5783;55.174;61.310;2024-03-06T05:26:09;28.50;19.20
11454;DHT22;5783;55.174;61.310;2024-03-06T05:28:37;28.40;19.20
11454;DHT22;5783;55.174;61.310;2024-03-06T05:33:53;28.40;17.60
11454;DHT22;5783;55.174;61.310;2024-03-06T05:36:21;28.30;18.10
11454;DHT22;5783;55.174;61.310;2024-03-06T05:38:49;28.30;18.20
11454;DHT22;5783;55.174;61.310;2024-03-06T05:41:18;28.30;19.00
11454;DHT22;5783;55.174;61.310;2024-03-06T05:43:46;28.30;18.50
11454;DHT22;5783;55.174;61.310;2024-03-06T05:46:15;28.30;18.30
11454;DHT22;5783;55.174;61.310;2024-03-06T05:48:45;28.30;18.10
11454;DHT22;5783;55.174;61.310;2024-03-06T05:51:13;28.30;17.90
11454;DHT22;5783;55.174;61.310;2024-03-06T05:53:41;28.20;17.70
11454;DHT22;5783;55.174;61.310;2024-03-06T05:56:29;28.30;17.80
11454;DHT22;5783;55.174;61.310;2024-03-06T05:58:57;28.20;17.70
11454;DHT22;5783;55.174;61.310;2024-03-06T06:01:27;28.20;17.70
11454;DHT22;5783;55.174;61.310;2024-03-06T06:03:55;28.20;17.60
11454;DHT22;5783;55.174;61.310;2024-03-06T06:08:54;28.10;17.60
11454;DHT22;5783;55.174;61.310;2024-03-06T06:11:22;28.10;17.70
11454;DHT22;5783;55.174;61.310;2024-03-06T06:13:50;28.00;17.00
11454;DHT22;5783;55.174;61.310;2024-03-06T06:16:19;28.00;17.50
11454;DHT22;5783;55.174;61.310;2024-03-06T06:18:47;28.10;17.90
11454;DHT22;5783;55.174;61.310;2024-03-06T06:21:15;28.10;18.30
11454;DHT22;5783;55.174;61.310;2024-03-06T06:23:44;28.10;20.60
11454;DHT22;5783;55.174;61.310;2024-03-06T06:26:13;28.10;19.50
11454;DHT22;5783;55.174;61.310;2024-03-06T06:28:42;28.10;18.90
11454;DHT22;5783;55.174;61.310;2024-03-06T06:31:12;28.10;18.70
11454;DHT22;5783;55.174;61.310;2024-03-06T06:33:41;28.10;18.60
11454;DHT22;5783;55.174;61.310;2024-03-06T06:36:11;28.00;18.40
11454;DHT22;5783;55.174;61.310;2024-03-06T06:38:40;28.00;18.30
11454;DHT22;5783;55.174;61.310;2024-03-06T06:41:08;28.00;17.90
11454;DHT22;5783;55.174;61.310;2024-03-06T06:43:37;28.00;17.90
11454;DHT22;5783;55.174;61.310;2024-03-06T06:46:07;28.00;17.70
11454;DHT22;5783;55.174;61.310;2024-03-06T06:48:36;28.00;18.10
11454;DHT22;5783;55.174;61.310;2024-03-06T06:51:04;28.00;17.80
11454;DHT22;5783;55.174;61.310;2024-03-06T06:53:32;28.00;17.80
11454;DHT22;5783;55.174;61.310;2024-03-06T06:56:00;28.10;17.60
11454;DHT22;5783;55.174;61.310;2024-03-06T06:58:30;28.00;17.30
11454;DHT22;5783;55.174;61.310;2024-03-06T07:00:58;28.10;17.80
11454;DHT22;5783;55.174;61.310;2024-03-06T07:03:26;28.10;18.00
11454;DHT22;5783;55.174;61.310;2024-03-06T07:05:56;28.10;19.00
11454;DHT22;5783;55.174;61.310;2024-03-06T07:08:25;28.00;18.90
11454;DHT22;5783;55.174;61.310;2024-03-06T07:10:54;28.00;18.60
11454;DHT22;5783;55.174;61.310;2024-03-06T07:13:23;28.00;18.20
11454;DHT22;5783;55.174;61.310;2024-03-06T07:15:52;28.10;18.30
11454;DHT22;5783;55.174;61.310;2024-03-06T07:18:27;28.10;17.90
11454;DHT22;5783;55.174;61.310;2024-03-06T07:20:58;28.10;17.70
11454;DHT22;5783;55.174;61.310;2024-03-06T07:23:27;28.10;17.50
11454;DHT22;5783;55.174;61.310;2024-03-06T07:25:56;28.10;17.90
11454;DHT22;5783;55.174;61.310;2024-03-06T07:28:26;28.00;17.50
11454;DHT22;5783;55.174;61.310;2024-03-06T07:33:53;28.10;17.20
11454;DHT22;5783;55.174;61.310;2024-03-06T07:36:23;28.10;17.70
11454;DHT22;5783;55.174;61.310;2024-03-06T07:38:52;28.10;17.50
11454;DHT22;5783;55.174;61.310;2024-03-06T07:41:21;28.00;17.40
11454;DHT22;5783;55.174;61.310;2024-03-06T07:43:49;28.10;17.20
11454;DHT22;5783;55.174;61.310;2024-03-06T07:46:18;28.10;17.10
11454;DHT22;5783;55.174;61.310;2024-03-06T07:48:46;28.10;17.30
11454;DHT22;5783;55.174;61.310;2024-03-06T07:51:15;28.10;17.30
11454;DHT22;5783;55.174;61.310;2024-03-06T07:53:44;28.10;17.30
11454;DHT22;5783;55.174;61.310;2024-03-06T07:56:12;28.10;17.30
11454;DHT22;5783;55.174;61.310;2024-03-06T07:58:41;28.10;17.20
11454;DHT22;5783;55.174;61.310;2024-03-06T08:01:10;28.20;17.00
11454;DHT22;5783;55.174;61.310;2024-03-06T08:03:39;28.20;17.00
11454;DHT22;5783;55.174;61.310;2024-03-06T08:06:09;28.20;16.80
11454;DHT22;5783;55.174;61.310;2024-03-06T08:08:40;28.20;16.80
11454;DHT22;5783;55.174;61.310;2024-03-06T08:11:30;28.20;16.70
11454;DHT22;5783;55.174;61.310;2024-03-06T08:14:01;28.20;16.60
11454;DHT22;5783;55.174;61.310;2024-03-06T08:16:30;28.20;16.50
11454;DHT22;5783;55.174;61.310;2024-03-06T08:18:59;28.20;16.40
11454;DHT22;5783;55.174;61.310;2024-03-06T08:21:28;28.20;16.20
11454;DHT22;5783;55.174;61.310;2024-03-06T08:23:57;28.20;16.40
11454;DHT22;5783;55.174;61.310;2024-03-06T08:26:25;28.20;16.30
11454;DHT22;5783;55.174;61.310;2024-03-06T08:28:53;28.20;16.20
11454;DHT22;5783;55.174;61.310;2024-03-06T08:31:21;28.20;16.20
11454;DHT22;5783;55.174;61.310;2024-03-06T08:33:51;28.20;16.30
11454;DHT22;5783;55.174;61.310;2024-03-06T08:36:20;28.20;16.10
11454;DHT22;5783;55.174;61.310;2024-03-06T08:38:50;28.20;16.10
11454;DHT22;5783;55.174;61.310;2024-03-06T08:41:18;28.20;16.20
11454;DHT22;5783;55.174;61.310;2024-03-06T08:43:47;28.10;15.90
11454;DHT22;5783;55.174;61.310;2024-03-06T08:46:15;28.10;16.10
11454;DHT22;5783;55.174;61.310;2024-03-06T08:48:43;28.10;16.00
11454;DHT22;5783;55.174;61.310;2024-03-06T08:51:12;28.10;16.00
11454;DHT22;5783;55.174;61.310;2024-03-06T08:53:40;28.10;15.80
11454;DHT22;5783;55.174;61.310;2024-03-06T08:56:09;28.10;16.10
11454;DHT22;5783;55.174;61.310;2024-03-06T08:58:38;28.10;16.20
11454;DHT22;5783;55.174;61.310;2024-03-06T09:01:07;28.10;16.20
11454;DHT22;5783;55.174;61.310;2024-03-06T09:03:35;28.10;16.30
11454;DHT22;5783;55.174;61.310;2024-03-06T09:06:03;28.10;16.30
11454;DHT22;5783;55.174;61.310;2024-03-06T09:08:32;28.00;15.90
11454;DHT22;5783;55.174;61.310;2024-03-06T09:11:01;28.00;16.20
11454;DHT22;5783;55.174;61.310;2024-03-06T09:13:29;28.00;16.30
11454;DHT22;5783;55.174;61.310;2024-03-06T09:15:58;28.00;16.30
11454;DHT22;5783;55.174;61.310;2024-03-06T09:18:27;28.10;16.40
11454;DHT22;5783;55.174;61.310;2024-03-06T09:20:56;28.10;16.40
11454;DHT22;5783;55.174;61.310;2024-03-06T09:23:24;28.10;16.40
11454;DHT22;5783;55.174;61.310;2024-03-06T09:25:53;28.10;16.30
11454;DHT22;5783;55.174;61.310;2024-03-06T09:28:22;28.10;16.30
11454;DHT22;5783;55.174;61.310;2024-03-06T09:30:51;28.10;16.10
11454;DHT22;5783;55.174;61.310;2024-03-06T09:33:20;28.10;16.30
11454;DHT22;5783;55.174;61.310;2024-03-06T09:38:40;28.10;16.30
11454;DHT22;5783;55.174;61.310;2024-03-06T09:41:09;28.10;16.30
11454;DHT22;5783;55.174;61.310;2024-03-06T09:43:37;28.10;16.40
11454;DHT22;5783;55.174;61.310;2024-03-06T09:46:08;28.00;16.30
11454;DHT22;5783;55.174;61.310;2024-03-06T09:48:42;28.00;16.40
11454;DHT22;5783;55.174;61.310;2024-03-06T09:51:09;28.00;16.40
11454;DHT22;5783;55.174;61.310;2024-03-06T09:53:38;28.00;16.50
11454;DHT22;5783;55.174;61.310;2024-03-06T09:56:07;28.00;16.70
11454;DHT22;5783;55.174;61.310;2024-03-06T09:58:36;28.00;16.60
11454;DHT22;5783;55.174;61.310;2024-03-06T10:01:08;27.70;16.50
11454;DHT22;5783;55.174;61.310;2024-03-06T10:03:38;27.70;17.20
11454;DHT22;5783;55.174;61.310;2024-03-06T10:06:27;27.80;17.50
11454;DHT22;5783;55.174;61.310;2024-03-06T10:09:03;27.60;17.60
11454;DHT22;5783;55.174;61.310;2024-03-06T10:11:29;27.70;18.60
11454;DHT22;5783;55.174;61.310;2024-03-06T10:13:59;27.70;17.20
11454;DHT22;5783;55.174;61.310;2024-03-06T10:16:28;27.70;17.00
11454;DHT22;5783;55.174;61.310;2024-03-06T10:18:57;27.70;16.90
11454;DHT22;5783;55.174;61.310;2024-03-06T10:24:34;27.80;17.60
11454;DHT22;5783;55.174;61.310;2024-03-06T10:27:03;27.70;17.60
11454;DHT22;5783;55.174;61.310;2024-03-06T10:29:32;27.70;17.40
11454;DHT22;5783;55.174;61.310;2024-03-06T10:32:02;27.70;17.20
11454;DHT22;5783;55.174;61.310;2024-03-06T10:34:31;27.70;16.70
11454;DHT22;5783;55.174;61.310;2024-03-06T10:37:20;27.70;17.00
11454;DHT22;5783;55.174;61.310;2024-03-06T10:39:50;27.70;18.50
11454;DHT22;5783;55.174;61.310;2024-03-06T10:42:23;27.80;17.40
11454;DHT22;5783;55.174;61.310;2024-03-06T10:44:55;27.80;16.60
11454;DHT22;5783;55.174;61.310;2024-03-06T10:47:25;27.80;16.70
11454;DHT22;5783;55.174;61.310;2024-03-06T10:49:55;27.80;16.60
11454;DHT22;5783;55.174;61.310;2024-03-06T10:52:28;27.80;16.70
11454;DHT22;5783;55.174;61.310;2024-03-06T10:54:58;27.80;17.70
11454;DHT22;5783;55.174;61.310;2024-03-06T10:57:27;27.90;17.60
11454;DHT22;5783;55.174;61.310;2024-03-06T10:59:57;27.90;16.90
11454;DHT22;5783;55.174;61.310;2024-03-06T11:02:26;27.90;17.10
11454;DHT22;5783;55.174;61.310;2024-03-06T11:04:56;27.80;17.00
11454;DHT22;5783;55.174;61.310;2024-03-06T11:07:25;27.90;16.90
11454;DHT22;5783;55.174;61.310;2024-03-06T11:09:54;27.80;16.80
11454;DHT22;5783;55.174;61.310;2024-03-06T11:12:45;27.80;16.40
11454;DHT22;5783;55.174;61.310;2024-03-06T11:15:33;27.80;16.90
11454;DHT22;5783;55.174;61.310;2024-03-06T11:20:51;27.90;17.10
11454;DHT22;5783;55.174;61.310;2024-03-06T11:23:19;27.90;17.50
11454;DHT22;5783;55.174;61.310;2024-03-06T11:28:37;27.90;17.40
11454;DHT22;5783;55.174;61.310;2024-03-06T11:31:07;28.00;17.00
11454;DHT22;5783;55.174;61.310;2024-03-06T11:36:45;28.00;16.40
11454;DHT22;5783;55.174;61.310;2024-03-06T11:39:15;28.00;16.70
11454;DHT22;5783;55.174;61.310;2024-03-06T11:42:04;28.00;16.10
11454;DHT22;5783;55.174;61.310;2024-03-06T11:44:35;28.10;17.10
11454;DHT22;5783;55.174;61.310;2024-03-06T11:47:04;28.00;16.40
11454;DHT22;5783;55.174;61.310;2024-03-06T11:49:35;28.00;16.30
11454;DHT22;5783;55.174;61.310;2024-03-06T11:52:05;28.00;15.90
11454;DHT22;5783;55.174;61.310;2024-03-06T11:54:53;28.00;16.20
11454;DHT22;5783;55.174;61.310;2024-03-06T11:57:22;28.00;16.40
11454;DHT22;5783;55.174;61.310;2024-03-06T11:59:52;28.00;15.90
11454;DHT22;5783;55.174;61.310;2024-03-06T12:02:21;28.00;15.70
11454;DHT22;5783;55.174;61.310;2024-03-06T12:04:49;28.00;16.40
11454;DHT22;5783;55.174;61.310;2024-03-06T12:07:17;28.00;16.60
11454;DHT22;5783;55.174;61.310;2024-03-06T12:09:46;28.00;16.80
11454;DHT22;5783;55.174;61.310;2024-03-06T12:12:15;28.00;16.00
11454;DHT22;5783;55.174;61.310;2024-03-06T12:14:55;28.00;15.90
11454;DHT22;5783;55.174;61.310;2024-03-06T12:17:18;28.00;16.10
11454;DHT22;5783;55.174;61.310;2024-03-06T12:19:47;28.00;16.10
11454;DHT22;5783;55.174;61.310;2024-03-06T12:22:16;28.10;17.80
11454;DHT22;5783;55.174;61.310;2024-03-06T12:24:45;28.10;17.00
11454;DHT22;5783;55.174;61.310;2024-03-06T12:27:13;28.00;18.00
11454;DHT22;5783;55.174;61.310;2024-03-06T12:29:42;27.90;16.80
11454;DHT22;5783;55.174;61.310;2024-03-06T12:34:58;27.90;17.00
11454;DHT22;5783;55.174;61.310;2024-03-06T12:40:14;27.90;16.90
11454;DHT22;5783;55.174;61.310;2024-03-06T12:42:43;27.90;17.70
11454;DHT22;5783;55.174;61.310;2024-03-06T12:45:12;27.80;16.50
11454;DHT22;5783;55.174;61.310;2024-03-06T12:47:42;27.90;16.20
11454;DHT22;5783;55.174;61.310;2024-03-06T12:50:13;27.90;16.10
11454;DHT22;5783;55.174;61.310;2024-03-06T12:52:42;27.90;15.90
11454;DHT22;5783;55.174;61.310;2024-03-06T12:55:30;27.80;15.90
11454;DHT22;5783;55.174;61.310;2024-03-06T12:57:59;27.80;17.50
11454;DHT22;5783;55.174;61.310;2024-03-06T13:00:28;27.80;16.60
11454;DHT22;5783;55.174;61.310;2024-03-06T13:02:57;27.80;17.10
11454;DHT22;5783;55.174;61.310;2024-03-06T13:05:25;27.80;16.50
11454;DHT22;5783;55.174;61.310;2024-03-06T13:07:53;27.90;16.80
11454;DHT22;5783;55.174;61.310;2024-03-06T13:10:22;27.90;16.90
11454;DHT22;5783;55.174;61.310;2024-03-06T13:12:51;27.90;16.00
11454;DHT22;5783;55.174;61.310;2024-03-06T13:15:19;27.90;16.80
11454;DHT22;5783;55.174;61.310;2024-03-06T13:17:47;27.90;17.30
11454;DHT22;5783;55.174;61.310;2024-03-06T13:20:15;28.00;17.20
11454;DHT22;5783;55.174;61.310;2024-03-06T13:22:43;27.90;17.00
11454;DHT22;5783;55.174;61.310;2024-03-06T13:25:11;27.90;17.10
11454;DHT22;5783;55.174;61.310;2024-03-06T13:27:40;27.90;17.80
11454;DHT22;5783;55.174;61.310;2024-03-06T13:30:08;27.90;17.10
11454;DHT22;5783;55.174;61.310;2024-03-06T13:32:38;27.90;18.50
11454;DHT22;5783;55.174;61.310;2024-03-06T13:35:07;27.90;18.00
11454;DHT22;5783;55.174;61.310;2024-03-06T13:37:38;27.90;18.30
11454;DHT22;5783;55.174;61.310;2024-03-06T13:42:55;27.90;14.80
11454;DHT22;5783;55.174;61.310;2024-03-06T13:45:24;27.80;16.50
11454;DHT22;5783;55.174;61.310;2024-03-06T13:47:55;27.80;16.40
11454;DHT22;5783;55.174;61.310;2024-03-06T13:50:24;27.80;17.10
11454;DHT22;5783;55.174;61.310;2024-03-06T13:52:54;27.80;16.50
11454;DHT22;5783;55.174;61.310;2024-03-06T13:55:22;27.80;19.20
11454;DHT22;5783;55.174;61.310;2024-03-06T13:57:51;27.80;19.70
11454;DHT22;5783;55.174;61.310;2024-03-06T14:00:20;27.80;19.50
11454;DHT22;5783;55.174;61.310;2024-03-06T14:02:49;27.80;18.50
11454;DHT22;5783;55.174;61.310;2024-03-06T14:05:18;27.80;17.90
11454;DHT22;5783;55.174;61.310;2024-03-06T14:07:49;27.80;17.20
11454;DHT22;5783;55.174;61.310;2024-03-06T14:10:17;27.90;17.10
11454;DHT22;5783;55.174;61.310;2024-03-06T14:12:48;27.90;17.60
11454;DHT22;5783;55.174;61.310;2024-03-06T14:15:36;27.80;16.80
11454;DHT22;5783;55.174;61.310;2024-03-06T14:18:05;27.70;17.90
11454;DHT22;5783;55.174;61.310;2024-03-06T14:20:33;27.60;18.00
11454;DHT22;5783;55.174;61.310;2024-03-06T14:23:03;27.60;18.30
11454;DHT22;5783;55.174;61.310;2024-03-06T14:25:32;27.60;18.40
11454;DHT22;5783;55.174;61.310;2024-03-06T14:28:03;27.50;18.10
11454;DHT22;5783;55.174;61.310;2024-03-06T14:30:32;27.50;18.40
11454;DHT22;5783;55.174;61.310;2024-03-06T14:33:02;27.50;20.10
11454;DHT22;5783;55.174;61.310;2024-03-06T14:35:31;27.50;16.60
11454;DHT22;5783;55.174;61.310;2024-03-06T14:38:00;27.50;17.30
11454;DHT22;5783;55.174;61.310;2024-03-06T14:40:29;27.50;18.40
11454;DHT22;5783;55.174;61.310;2024-03-06T14:42:58;27.50;18.80
11454;DHT22;5783;55.174;61.310;2024-03-06T14:45:28;27.50;19.10
11454;DHT22;5783;55.174;61.310;2024-03-06T14:47:56;27.50;19.30
11454;DHT22;5783;55.174;61.310;2024-03-06T14:50:25;27.60;19.60
11454;DHT22;5783;55.174;61.310;2024-03-06T14:52:54;27.60;19.50
11454;DHT22;5783;55.174;61.310;2024-03-06T14:55:23;27.60;19.70
11454;DHT22;5783;55.174;61.310;2024-03-06T14:57:51;27.60;20.00
11454;DHT22;5783;55.174;61.310;2024-03-06T15:00:20;27.60;20.10
11454;DHT22;5783;55.174;61.310;2024-03-06T15:02:49;27.60;20.10
11454;DHT22;5783;55.174;61.310;2024-03-06T15:05:18;27.50;20.60
11454;DHT22;5783;55.174;61.310;2024-03-06T15:07:47;27.50;21.20
11454;DHT22;5783;55.174;61.310;2024-03-06T15:10:16;27.50;21.30
11454;DHT22;5783;55.174;61.310;2024-03-06T15:12:46;27.50;21.00
11454;DHT22;5783;55.174;61.310;2024-03-06T15:15:14;27.50;21.50
11454;DHT22;5783;55.174;61.310;2024-03-06T15:17:42;27.50;21.40
11454;DHT22;5783;55.174;61.310;2024-03-06T15:20:12;27.50;21.40
11454;DHT22;5783;55.174;61.310;2024-03-06T15:22:42;27.50;21.40
11454;DHT22;5783;55.174;61.310;2024-03-06T15:25:13;27.50;21.40
11454;DHT22;5783;55.174;61.310;2024-03-06T15:27:41;27.50;21.60
11454;DHT22;5783;55.174;61.310;2024-03-06T15:30:09;27.50;21.50
11454;DHT22;5783;55.174;61.310;2024-03-06T15:32:39;27.50;21.40
11454;DHT22;5783;55.174;61.310;2024-03-06T15:35:08;27.50;21.60
11454;DHT22;5783;55.174;61.310;2024-03-06T15:37:37;27.60;21.20
11454;DHT22;5783;55.174;61.310;2024-03-06T15:40:06;27.60;21.50
11454;DHT22;5783;55.174;61.310;2024-03-06T15:42:35;27.60;21.60
11454;DHT22;5783;55.174;61.310;2024-03-06T15:45:05;27.50;20.70
11454;DHT22;5783;55.174;61.310;2024-03-06T15:47:33;27.50;21.20
11454;DHT22;5783;55.174;61.310;2024-03-06T15:50:04;27.60;21.40
11454;DHT22;5783;55.174;61.310;2024-03-06T15:52:34;27.60;20.90
11454;DHT22;5783;55.174;61.310;2024-03-06T15:55:02;27.60;21.80
11454;DHT22;5783;55.174;61.310;2024-03-06T15:57:31;27.70;21.80
11454;DHT22;5783;55.174;61.310;2024-03-06T16:00:02;27.70;21.80
11454;DHT22;5783;55.174;61.310;2024-03-06T16:02:32;27.70;21.80
11454;DHT22;5783;55.174;61.310;2024-03-06T16:05:00;27.70;21.60
11454;DHT22;5783;55.174;61.310;2024-03-06T16:07:29;27.70;21.60
11454;DHT22;5783;55.174;61.310;2024-03-06T16:09:58;27.70;21.60
11454;DHT22;5783;55.174;61.310;2024-03-06T16:12:26;27.80;21.50
11454;DHT22;5783;55.174;61.310;2024-03-06T16:14:54;27.80;21.60